Time;durP1;ratioP1;P1;durP2;ratioP2;P2;SDS_P1;SDS_P2;PMS_P1;PMS_P2;Temp;Humidity;BMP_temperature;BMP_pressure;BME280_temperature;BME280_humidity;BME280_pressure;Samples;Min_cycle;Max_cycle;Signal;HPM_P1;HPM_P2
2023/08/11 00:00:32;;;;;;;4.43;4.03;;;16.50;99.90;;;;;;5079815;28;20422;-68
2023/08/11 00:02:58;;;;;;;4.80;4.40;;;16.40;99.90;;;;;;5080810;28;20426;-68
2023/08/11 00:05:24;;;;;;;7.00;4.83;;;16.40;99.90;;;;;;5081550;28;20781;-68
2023/08/11 00:07:50;;;;;;;5.07;4.57;;;16.40;99.90;;;;;;5083616;28;20177;-68
2023/08/11 00:10:20;;;;;;;4.43;4.03;;;16.40;99.90;;;;;;5082402;28;20871;-68
2023/08/11 00:12:46;;;;;;;4.90;4.40;;;16.40;99.90;;;;;;5083740;28;20541;-68
2023/08/11 00:15:12;;;;;;;4.50;4.10;;;16.40;99.90;;;;;;5081324;28;20429;-67
2023/08/11 00:17:39;;;;;;;5.30;4.20;;;16.40;99.90;;;;;;5082160;28;20427;-68
2023/08/11 00:20:06;;;;;;;4.60;4.20;;;16.40;99.90;;;;;;5083316;28;20303;-67
2023/08/11 00:22:32;;;;;;;5.63;4.60;;;16.40;99.90;;;;;;5082607;28;20419;-68
2023/08/11 00:24:58;;;;;;;5.27;4.30;;;16.40;99.90;;;;;;5082275;28;20473;-68
2023/08/11 00:27:24;;;;;;;5.10;4.13;;;16.40;99.90;;;;;;5081926;28;20642;-68
2023/08/11 00:29:50;;;;;;;6.43;4.30;;;16.40;99.90;;;;;;5083043;28;20509;-68
2023/08/11 00:32:15;;;;;;;5.23;4.10;;;16.30;99.90;;;;;;5084776;28;20198;-68
2023/08/11 00:34:41;;;;;;;5.37;4.73;;;16.30;99.90;;;;;;5082505;28;20176;-68
2023/08/11 00:37:07;;;;;;;5.50;4.57;;;16.30;99.90;;;;;;5065820;28;20177;-67
2023/08/11 00:39:33;;;;;;;5.03;4.63;;;16.20;99.90;;;;;;5083429;28;20880;-68
2023/08/11 00:41:59;;;;;;;5.10;4.60;;;16.10;99.90;;;;;;5083472;28;20499;-68
2023/08/11 00:44:26;;;;;;;4.97;4.57;;;16.10;99.90;;;;;;5081957;28;21014;-67
2023/08/11 00:46:52;;;;;;;4.33;3.93;;;16.00;99.90;;;;;;5083077;28;20194;-68
2023/08/11 00:49:18;;;;;;;4.73;4.33;;;16.00;99.90;;;;;;5082757;28;20944;-67
2023/08/11 00:51:44;;;;;;;4.87;4.47;;;16.00;99.90;;;;;;5083000;28;20422;-68
2023/08/11 00:54:11;;;;;;;4.53;4.13;;;16.00;99.90;;;;;;5082877;28;20422;-68
2023/08/11 00:56:43;;;;;;;6.43;4.70;;;15.90;99.90;;;;;;5082040;28;20453;-68
2023/08/11 00:59:14;;;;;;;4.73;4.33;;;15.90;99.90;;;;;;5081848;28;20430;-68
2023/08/11 01:01:40;;;;;;;4.93;4.27;;;15.80;99.90;;;;;;5082231;28;20473;-68
2023/08/11 01:04:07;;;;;;;6.23;4.70;;;15.80;99.90;;;;;;5082419;28;20458;-68
2023/08/11 01:06:55;;;;;;;4.87;4.40;;;15.80;99.90;;;;;;5081445;28;20176;-67
2023/08/11 01:10:06;;;;;;;5.00;4.57;;;15.80;99.90;;;;;;5082382;28;20415;-67
2023/08/11 01:12:58;;;;;;;6.70;5.20;;;15.90;99.90;;;;;;5043962;28;20513;-67
2023/08/11 01:15:30;;;;;;;5.40;4.90;;;15.90;99.90;;;;;;5076147;28;20530;-67
2023/08/11 01:17:57;;;;;;;4.97;4.20;;;15.90;99.90;;;;;;5082151;28;20928;-68
2023/08/11 01:20:23;;;;;;;4.87;4.07;;;15.90;99.90;;;;;;5082230;28;20779;-68
2023/08/11 01:22:55;;;;;;;5.40;4.70;;;15.90;99.90;;;;;;5082517;28;21140;-68
2023/08/11 01:25:22;;;;;;;4.80;4.37;;;15.80;99.90;;;;;;5080840;28;20548;-67
2023/08/11 01:27:59;;;;;;;5.17;4.60;;;15.80;99.90;;;;;;5082263;28;20423;-68
2023/08/11 01:30:26;;;;;;;4.57;4.20;;;15.70;99.90;;;;;;5066676;28;20427;-68
2023/08/11 01:32:52;;;;;;;5.50;5.00;;;15.60;99.90;;;;;;5062039;28;20472;-68
2023/08/11 01:35:21;;;;;;;5.30;4.87;;;15.60;99.90;;;;;;5061145;28;20432;-68
2023/08/11 01:37:47;;;;;;;5.30;4.80;;;15.60;99.90;;;;;;5062011;28;20899;-67
2023/08/11 01:40:14;;;;;;;4.87;4.47;;;15.50;99.90;;;;;;5062102;28;20477;-68
2023/08/11 01:42:41;;;;;;;5.47;4.97;;;15.50;99.90;;;;;;5061639;28;20423;-68
2023/08/11 01:45:12;;;;;;;5.60;5.10;;;15.50;99.90;;;;;;5060805;28;20871;-68
2023/08/11 01:47:41;;;;;;;5.87;5.37;;;15.50;99.90;;;;;;5060844;28;20432;-67
2023/08/11 01:50:09;;;;;;;5.93;4.90;;;15.50;99.90;;;;;;5054029;28;20851;-68
2023/08/11 01:52:45;;;;;;;5.77;5.17;;;15.50;99.90;;;;;;5081330;28;20504;-68
2023/08/11 01:55:13;;;;;;;5.07;4.67;;;15.50;99.90;;;;;;5081073;28;20435;-68
2023/08/11 01:57:42;;;;;;;5.97;5.37;;;15.50;99.90;;;;;;5081296;28;20564;-68
2023/08/11 02:00:10;;;;;;;5.77;5.27;;;15.40;99.90;;;;;;5080830;28;20450;-68
2023/08/11 02:02:37;;;;;;;6.90;5.87;;;15.40;99.90;;;;;;5081432;28;20426;-67
2023/08/11 02:05:06;;;;;;;6.20;5.07;;;15.40;99.90;;;;;;5079395;28;20936;-68
2023/08/11 02:07:32;;;;;;;6.47;5.20;;;15.50;99.90;;;;;;5081424;28;20601;-67
2023/08/11 02:09:57;;;;;;;5.23;4.73;;;15.50;99.90;;;;;;5081802;28;20867;-67
2023/08/11 02:12:23;;;;;;;5.07;4.63;;;15.50;99.90;;;;;;5082388;28;20414;-68
2023/08/11 02:14:49;;;;;;;5.30;4.50;;;15.50;99.90;;;;;;5080165;28;20176;-68
2023/08/11 02:17:14;;;;;;;8.30;4.87;;;15.50;99.90;;;;;;5081877;28;20242;-68
2023/08/11 02:19:40;;;;;;;5.40;4.97;;;15.50;99.90;;;;;;5081213;28;20266;-68
2023/08/11 02:22:06;;;;;;;7.37;4.83;;;15.50;99.90;;;;;;5081218;28;20260;-68
2023/08/11 02:24:31;;;;;;;5.00;4.63;;;15.50;99.90;;;;;;5080650;28;20196;-68
2023/08/11 02:26:57;;;;;;;4.70;4.20;;;15.40;99.90;;;;;;5080500;28;20605;-68
2023/08/11 02:29:24;;;;;;;5.97;5.47;;;15.40;99.90;;;;;;5075002;28;20338;-68
2023/08/11 02:31:49;;;;;;;5.00;4.50;;;15.40;99.90;;;;;;5060519;28;20223;-68
2023/08/11 02:34:15;;;;;;;4.83;4.43;;;15.40;99.90;;;;;;5060388;28;21224;-67
2023/08/11 02:36:41;;;;;;;4.20;3.90;;;15.40;99.90;;;;;;5060317;28;20709;-67
2023/08/11 02:39:06;;;;;;;7.50;5.20;;;15.40;99.90;;;;;;5061422;28;20233;-68
2023/08/11 02:41:33;;;;;;;4.60;4.20;;;15.40;99.90;;;;;;5060967;28;20194;-68
2023/08/11 02:43:58;;;;;;;11.93;4.70;;;15.40;99.90;;;;;;5059887;28;20957;-68
2023/08/11 02:46:24;;;;;;;5.23;4.70;;;15.40;99.90;;;;;;5060430;28;20415;-68
2023/08/11 02:48:50;;;;;;;4.47;4.07;;;15.40;99.90;;;;;;5060430;28;20185;-68
2023/08/11 02:51:16;;;;;;;4.90;4.50;;;15.40;99.90;;;;;;5080595;28;20827;-68
2023/08/11 02:53:41;;;;;;;4.87;4.47;;;15.40;99.90;;;;;;5080070;28;20168;-67
2023/08/11 02:56:09;;;;;;;6.37;4.50;;;15.40;99.90;;;;;;5080635;28;20176;-68
2023/08/11 02:58:35;;;;;;;5.50;5.00;;;15.40;99.90;;;;;;5079510;28;20275;-68
2023/08/11 03:01:02;;;;;;;5.20;4.53;;;15.50;99.90;;;;;;5080313;28;20411;-68
2023/08/11 03:03:28;;;;;;;5.17;4.57;;;15.40;99.90;;;;;;5080513;28;20935;-68
2023/08/11 03:05:55;;;;;;;5.03;4.50;;;15.40;99.90;;;;;;5079392;28;20458;-67
2023/08/11 03:08:21;;;;;;;6.10;3.83;;;15.50;99.90;;;;;;5080942;28;20188;-68
2023/08/11 03:10:47;;;;;;;4.60;4.20;;;15.50;99.90;;;;;;5080114;28;20418;-67
2023/08/11 03:13:13;;;;;;;5.27;4.77;;;15.40;99.90;;;;;;5080956;28;20419;-68
2023/08/11 03:15:38;;;;;;;7.63;4.70;;;15.40;99.90;;;;;;5079763;28;20283;-67
2023/08/11 03:18:04;;;;;;;7.70;4.80;;;15.40;99.90;;;;;;5079116;28;20287;-68
2023/08/11 03:20:30;;;;;;;4.80;4.30;;;15.40;99.90;;;;;;5081097;28;20187;-68
2023/08/11 03:22:56;;;;;;;6.23;4.47;;;15.40;99.90;;;;;;5079904;28;20177;-68
2023/08/11 03:25:22;;;;;;;4.90;4.50;;;15.50;99.90;;;;;;5079901;28;20220;-68
2023/08/11 03:27:48;;;;;;;5.57;4.47;;;15.50;99.90;;;;;;5080172;28;20184;-68
2023/08/11 03:30:14;;;;;;;4.97;4.27;;;15.50;99.90;;;;;;5067535;28;20437;-68
2023/08/11 03:32:39;;;;;;;4.43;4.03;;;15.60;99.90;;;;;;5060609;28;20407;-68
2023/08/11 03:35:06;;;;;;;5.17;4.10;;;15.50;99.90;;;;;;5058883;28;20212;-68
2023/08/11 03:37:33;;;;;;;6.97;4.07;;;15.50;99.90;;;;;;5060681;28;20426;-67
2023/08/11 03:39:58;;;;;;;4.40;4.00;;;15.50;99.90;;;;;;5063740;28;20411;-67
2023/08/11 03:42:24;;;;;;;4.73;4.33;;;15.50;99.90;;;;;;5064201;28;20418;-68
2023/08/11 03:44:52;;;;;;;5.17;4.67;;;15.50;99.90;;;;;;5063127;28;20490;-68
2023/08/11 03:47:19;;;;;;;5.03;4.47;;;15.40;99.90;;;;;;5045887;28;20220;-68
2023/08/11 03:49:45;;;;;;;5.20;4.30;;;15.40;99.90;;;;;;5073236;28;20426;-68
2023/08/11 03:52:12;;;;;;;6.30;4.40;;;15.40;99.90;;;;;;5083368;28;20426;-68
2023/08/11 03:54:38;;;;;;;4.00;3.60;;;15.40;99.90;;;;;;5084707;28;20426;-68
2023/08/11 03:57:04;;;;;;;4.53;4.13;;;15.40;99.90;;;;;;5083714;28;20423;-68
2023/08/11 03:59:30;;;;;;;4.93;4.53;;;15.40;99.90;;;;;;5083226;28;20414;-67
2023/08/11 04:01:55;;;;;;;4.27;3.80;;;15.40;99.90;;;;;;5084083;28;20271;-68
2023/08/11 04:04:21;;;;;;;5.10;4.60;;;15.40;99.90;;;;;;5082832;28;20573;-68
2023/08/11 04:06:47;;;;;;;6.07;4.17;;;15.40;99.90;;;;;;5083944;28;20301;-68
2023/08/11 04:09:12;;;;;;;6.83;4.30;;;15.50;99.90;;;;;;5083257;28;21061;-68
2023/08/11 04:11:38;;;;;;;4.93;4.40;;;15.40;99.90;;;;;;5083812;28;20622;-68
2023/08/11 04:14:04;;;;;;;4.33;3.93;;;15.40;99.90;;;;;;5082741;28;20732;-68
2023/08/11 04:16:30;;;;;;;5.33;4.00;;;15.40;99.90;;;;;;5083240;28;20215;-67
2023/08/11 04:18:55;;;;;;;4.33;3.93;;;15.40;99.90;;;;;;5083863;28;20173;-68
2023/08/11 04:21:23;;;;;;;4.20;3.53;;;15.50;99.90;;;;;;5082911;28;20187;-68
2023/08/11 04:23:49;;;;;;;4.30;3.90;;;15.50;99.90;;;;;;5083167;28;20196;-68
2023/08/11 04:26:14;;;;;;;4.60;3.40;;;15.50;99.90;;;;;;5082504;28;21086;-68
2023/08/11 04:28:43;;;;;;;4.30;3.80;;;15.40;99.90;;;;;;5065121;28;20534;-68
2023/08/11 04:31:09;;;;;;;4.43;4.03;;;15.40;99.90;;;;;;5082851;28;20187;-68
2023/08/11 04:33:35;;;;;;;5.47;3.73;;;15.50;99.90;;;;;;5083056;28;20468;-68
2023/08/11 04:36:02;;;;;;;6.50;4.10;;;15.40;99.90;;;;;;5082710;28;20422;-67
2023/08/11 04:38:30;;;;;;;3.97;3.57;;;15.50;99.90;;;;;;5083305;28;20185;-67
2023/08/11 04:40:57;;;;;;;3.50;3.20;;;15.50;99.90;;;;;;5083333;28;20429;-68
2023/08/11 04:43:23;;;;;;;6.00;4.07;;;15.50;99.90;;;;;;5082349;28;20436;-68
2023/08/11 04:45:49;;;;;;;5.03;4.13;;;15.60;99.90;;;;;;5082494;28;20419;-68
2023/08/11 04:48:15;;;;;;;4.20;3.80;;;15.70;99.90;;;;;;5082511;28;20970;-68
2023/08/11 04:50:41;;;;;;;6.23;4.10;;;15.70;99.90;;;;;;5067646;28;20199;-68
2023/08/11 04:53:08;;;;;;;5.03;3.80;;;15.70;99.90;;;;;;5062537;28;20431;-68
2023/08/11 04:55:34;;;;;;;5.03;3.90;;;15.70;99.90;;;;;;5061795;28;20888;-68
2023/08/11 04:58:00;;;;;;;3.80;3.50;;;15.70;99.90;;;;;;5062932;28;20811;-68
2023/08/11 05:00:26;;;;;;;4.37;3.97;;;15.80;99.90;;;;;;5072198;28;20454;-68
2023/08/11 05:02:52;;;;;;;3.77;3.20;;;15.80;99.90;;;;;;5080487;28;20495;-68
2023/08/11 05:05:19;;;;;;;5.33;4.00;;;15.90;99.90;;;;;;5072319;28;20232;-68
2023/08/11 05:07:45;;;;;;;3.63;3.33;;;15.80;99.90;;;;;;5083011;28;20259;-68
2023/08/11 05:10:11;;;;;;;6.23;3.60;;;15.80;99.90;;;;;;5080301;28;20430;-68
2023/08/11 05:12:38;;;;;;;7.93;4.13;;;15.90;99.90;;;;;;5073392;28;20434;-68
2023/08/11 05:15:05;;;;;;;3.83;3.43;;;15.90;99.90;;;;;;5055017;28;20803;-68
2023/08/11 05:17:31;;;;;;;5.40;3.47;;;15.90;99.90;;;;;;5081191;28;21168;-68
2023/08/11 05:19:57;;;;;;;5.70;3.40;;;16.00;99.90;;;;;;5064793;28;20859;-68
2023/08/11 05:22:23;;;;;;;7.20;3.93;;;16.00;99.90;;;;;;5066054;28;20415;-68
2023/08/11 05:24:49;;;;;;;4.20;3.60;;;16.00;99.90;;;;;;5068519;28;20938;-68
2023/08/11 05:27:15;;;;;;;6.27;3.50;;;16.10;99.90;;;;;;5072520;28;20434;-68
2023/08/11 05:29:46;;;;;;;4.43;4.03;;;16.10;99.90;;;;;;5064782;28;20273;-68
2023/08/11 05:32:12;;;;;;;3.73;3.43;;;16.20;99.90;;;;;;5063687;28;20427;-69
2023/08/11 05:34:38;;;;;;;7.80;3.93;;;16.20;99.90;;;;;;5061243;28;20429;-68
2023/08/11 05:37:05;;;;;;;4.43;3.87;;;16.20;99.90;;;;;;5062209;28;20185;-68
2023/08/11 05:39:31;;;;;;;6.67;3.40;;;16.30;99.90;;;;;;5060021;28;20865;-68
2023/08/11 05:41:56;;;;;;;5.80;3.20;;;16.30;99.90;;;;;;5070542;28;20435;-68
2023/08/11 05:44:22;;;;;;;7.83;3.20;;;16.40;99.90;;;;;;5069807;28;20991;-68
2023/08/11 05:46:48;;;;;;;4.37;3.97;;;16.40;99.90;;;;;;5073663;28;20212;-68
2023/08/11 05:49:14;;;;;;;6.03;4.10;;;16.50;99.90;;;;;;5078604;28;20506;-67
2023/08/11 05:51:39;;;;;;;4.40;2.90;;;16.60;99.90;;;;;;5069800;28;20687;-67
2023/08/11 05:54:05;;;;;;;8.70;3.33;;;16.70;99.90;;;;;;5076382;28;20183;-68
2023/08/11 05:56:31;;;;;;;4.67;2.97;;;16.90;99.90;;;;;;5076079;28;20259;-68
2023/08/11 05:58:57;;;;;;;4.80;2.80;;;17.00;99.90;;;;;;5069002;28;20216;-68
2023/08/11 06:01:23;;;;;;;3.63;3.00;;;17.20;99.90;;;;;;5074158;28;20514;-68
2023/08/11 06:03:48;;;;;;;6.90;3.40;;;17.30;99.90;;;;;;5075936;28;20594;-68
2023/08/11 06:06:14;;;;;;;4.13;2.80;;;17.60;99.90;;;;;;5076081;28;20317;-68
2023/08/11 06:08:40;;;;;;;7.47;2.90;;;17.80;99.90;;;;;;5054335;28;20184;-68
2023/08/11 06:11:05;;;;;;;5.80;3.00;;;18.00;99.90;;;;;;5074652;28;20266;-68
2023/08/11 06:13:31;;;;;;;5.00;2.90;;;18.20;99.90;;;;;;5073284;28;21009;-68
2023/08/11 06:15:57;;;;;;;3.70;2.90;;;18.40;99.90;;;;;;5073665;28;20181;-68
2023/08/11 06:18:23;;;;;;;3.50;3.00;;;18.50;99.90;;;;;;5047973;28;20185;-68
2023/08/11 06:20:49;;;;;;;4.37;3.50;;;18.70;99.90;;;;;;5069656;28;20184;-67
2023/08/11 06:23:14;;;;;;;3.90;3.10;;;18.90;99.90;;;;;;5074164;28;20180;-68
2023/08/11 06:25:40;;;;;;;5.33;2.73;;;19.00;99.90;;;;;;5065291;28;20463;-67
2023/08/11 06:28:07;;;;;;;3.07;2.70;;;19.20;99.90;;;;;;5060590;28;20177;-68
2023/08/11 06:30:33;;;;;;;3.47;2.97;;;19.30;99.90;;;;;;5079137;28;20186;-68
2023/08/11 06:32:59;;;;;;;7.83;2.63;;;19.50;99.90;;;;;;5081653;28;20423;-68
2023/08/11 06:35:25;;;;;;;6.03;2.67;;;19.60;99.90;;;;;;5079869;28;20503;-67
2023/08/11 06:37:51;;;;;;;3.97;2.80;;;19.70;99.90;;;;;;5073746;28;20616;-68
2023/08/11 06:40:17;;;;;;;3.43;2.57;;;19.90;99.90;;;;;;5063642;28;21141;-68
2023/08/11 06:42:43;;;;;;;4.43;2.67;;;20.00;99.90;;;;;;5062662;28;20181;-67
2023/08/11 06:45:09;;;;;;;4.27;2.37;;;20.20;99.90;;;;;;5064556;28;21143;-67
2023/08/11 06:47:35;;;;;;;3.83;2.80;;;20.30;99.90;;;;;;5073544;28;20621;-67
2023/08/11 06:50:06;;;;;;;7.00;2.87;;;20.40;99.90;;;;;;5058182;28;20422;-67
2023/08/11 06:52:32;;;;;;;2.80;2.43;;;20.60;99.90;;;;;;5078584;28;20427;-67
2023/08/11 06:54:58;;;;;;;3.10;2.63;;;20.70;99.90;;;;;;5075073;28;20435;-67
2023/08/11 06:57:24;;;;;;;3.30;2.10;;;20.80;99.90;;;;;;5076509;28;20218;-67
2023/08/11 06:59:49;;;;;;;3.70;2.37;;;20.90;99.90;;;;;;5069666;28;20195;-68
2023/08/11 07:02:15;;;;;;;3.27;2.40;;;21.00;99.90;;;;;;5074375;28;20593;-67
2023/08/11 07:04:41;;;;;;;3.20;2.30;;;21.10;99.90;;;;;;5072563;28;20286;-68
2023/08/11 07:07:06;;;;;;;3.20;2.53;;;21.20;99.90;;;;;;5070874;28;20176;-68
2023/08/11 07:09:33;;;;;;;6.03;2.53;;;21.30;99.90;;;;;;5071772;28;20172;-67
2023/08/11 07:11:59;;;;;;;3.90;2.17;;;21.40;99.90;;;;;;5062921;28;20185;-67
2023/08/11 07:14:25;;;;;;;2.73;2.43;;;21.50;99.90;;;;;;5073633;28;20433;-67
2023/08/11 07:16:51;;;;;;;2.87;2.50;;;21.50;99.90;;;;;;5086958;28;20176;-67
2023/08/11 07:19:18;;;;;;;3.27;2.83;;;21.50;99.90;;;;;;5086902;28;20184;-67
2023/08/11 07:21:44;;;;;;;2.43;2.23;;;21.50;99.90;;;;;;5087377;28;20761;-68
2023/08/11 07:24:10;;;;;;;2.63;2.40;;;21.60;99.90;;;;;;5086183;28;20468;-67
2023/08/11 07:26:36;;;;;;;4.00;2.20;;;21.60;99.90;;;;;;5086563;28;20172;-68
2023/08/11 07:29:01;;;;;;;4.77;2.47;;;21.60;99.90;;;;;;5078285;28;20852;-67
2023/08/11 07:31:27;;;;;;;5.07;2.73;;;21.50;99.90;;;;;;5066779;28;20185;-67
2023/08/11 07:33:53;;;;;;;3.30;2.10;;;21.60;99.90;;;;;;5066771;28;20230;-67
2023/08/11 07:36:20;;;;;;;3.40;2.80;;;21.60;99.90;;;;;;5065586;28;20216;-67
2023/08/11 07:38:46;;;;;;;2.83;2.50;;;21.70;99.90;;;;;;5067042;28;20173;-67
2023/08/11 07:41:12;;;;;;;7.07;2.83;;;21.80;99.90;;;;;;5066431;28;20995;-68
2023/08/11 07:43:38;;;;;;;4.27;2.63;;;21.90;99.90;;;;;;5068216;28;20575;-67
2023/08/11 07:46:03;;;;;;;2.60;2.33;;;22.00;99.90;;;;;;5065967;28;20528;-68
2023/08/11 07:48:29;;;;;;;4.10;2.57;;;22.10;99.90;;;;;;5048344;28;20196;-68
2023/08/11 07:50:55;;;;;;;2.97;2.60;;;22.00;99.90;;;;;;5066800;28;20172;-67
2023/08/11 07:53:20;;;;;;;4.57;2.90;;;22.00;99.90;;;;;;5068055;28;20275;-68
2023/08/11 07:55:46;;;;;;;3.07;2.43;;;22.10;99.90;;;;;;5069961;28;20177;-68
2023/08/11 07:58:12;;;;;;;3.90;2.90;;;22.10;99.90;;;;;;5066400;28;20260;-67
2023/08/11 08:00:38;;;;;;;2.50;2.30;;;22.10;99.90;;;;;;5066079;28;20181;-68
2023/08/11 08:03:04;;;;;;;3.20;2.90;;;22.00;99.90;;;;;;5065877;28;20181;-67
2023/08/11 08:05:30;;;;;;;4.23;2.57;;;22.10;99.90;;;;;;5063432;28;20209;-68
2023/08/11 08:07:56;;;;;;;3.60;3.00;;;22.10;99.90;;;;;;5066300;28;20519;-67
2023/08/11 08:10:22;;;;;;;2.40;2.20;;;22.10;99.90;;;;;;5065434;28;20423;-67
2023/08/11 08:12:48;;;;;;;2.77;2.57;;;22.10;99.90;;;;;;5066514;28;20446;-67
2023/08/11 08:15:16;;;;;;;4.07;2.70;;;22.10;99.90;;;;;;5064224;28;20233;-67
2023/08/11 08:17:42;;;;;;;4.73;2.70;;;22.10;99.90;;;;;;5065707;28;20419;-67
2023/08/11 08:20:09;;;;;;;4.57;2.93;;;22.00;99.90;;;;;;5048123;28;20945;-67
2023/08/11 08:22:35;;;;;;;2.60;2.40;;;22.10;99.90;;;;;;5065279;28;20434;-67
2023/08/11 08:25:06;;;;;;;4.37;2.90;;;22.10;99.90;;;;;;5046804;28;20497;-67
2023/08/11 08:27:33;;;;;;;2.67;2.47;;;22.20;99.90;;;;;;5064834;28;20485;-67
2023/08/11 08:29:58;;;;;;;5.83;2.50;;;22.20;99.90;;;;;;5082510;28;21030;-67
2023/08/11 08:32:24;;;;;;;3.13;2.63;;;22.20;99.90;;;;;;5085267;28;20415;-67
2023/08/11 08:34:50;;;;;;;5.03;3.00;;;22.20;99.90;;;;;;5085420;28;20172;-67
2023/08/11 08:37:19;;;;;;;3.03;2.53;;;22.30;99.90;;;;;;5117356;22;20606;-67
2023/08/11 08:39:46;;;;;;;2.60;2.40;;;22.30;99.90;;;;;;5106057;28;20582;-68
2023/08/11 08:42:14;;;;;;;3.37;2.87;;;22.40;99.90;;;;;;5107111;28;20428;-68
2023/08/11 08:44:42;;;;;;;3.20;2.50;;;22.40;99.90;;;;;;5104232;28;20881;-68
2023/08/11 08:47:08;;;;;;;3.13;2.67;;;22.40;99.90;;;;;;5106844;28;20458;-67
2023/08/11 08:49:36;;;;;;;4.70;3.00;;;22.50;99.90;;;;;;5105390;28;20896;-67
2023/08/11 08:52:03;;;;;;;5.10;2.50;;;22.50;99.90;;;;;;5106136;28;20430;-67
2023/08/11 08:54:29;;;;;;;4.67;3.10;;;22.60;99.90;;;;;;5104741;28;20426;-67
2023/08/11 08:56:56;;;;;;;5.80;3.07;;;22.60;99.90;;;;;;5105807;28;20436;-67
2023/08/11 08:59:22;;;;;;;2.60;2.30;;;22.60;99.90;;;;;;5104440;28;20194;-67
2023/08/11 09:01:50;;;;;;;7.63;3.40;;;22.70;99.90;;;;;;5105378;28;20712;-67
2023/08/11 09:04:16;;;;;;;4.30;2.87;;;22.80;99.90;;;;;;5105311;28;20460;-67
2023/08/11 09:06:42;;;;;;;3.23;2.93;;;22.80;99.90;;;;;;5103477;28;20505;-67
2023/08/11 09:09:09;;;;;;;2.83;2.63;;;22.90;99.90;;;;;;5103472;28;20449;-68
2023/08/11 09:11:38;;;;;;;3.77;2.60;;;22.90;99.90;;;;;;5101985;28;20783;-68
2023/08/11 09:14:08;;;;;;;3.17;2.87;;;23.00;99.90;;;;;;5102495;28;20834;-68
2023/08/11 09:16:35;;;;;;;3.23;2.27;;;23.00;99.90;;;;;;5100498;28;20445;-67
2023/08/11 09:19:03;;;;;;;3.70;2.80;;;23.10;99.90;;;;;;5103269;28;20502;-67
2023/08/11 09:21:30;;;;;;;3.70;2.53;;;23.10;99.90;;;;;;5102593;28;20421;-67
2023/08/11 09:23:56;;;;;;;6.73;2.60;;;23.20;99.90;;;;;;5102194;28;20468;-67
2023/08/11 09:26:23;;;;;;;3.60;2.87;;;23.30;99.90;;;;;;5097919;28;20470;-68
2023/08/11 09:28:50;;;;;;;4.93;2.67;;;23.40;99.90;;;;;;5089992;28;20771;-68
2023/08/11 09:31:20;;;;;;;3.40;2.60;;;23.40;99.90;;;;;;5069581;28;20425;-68
2023/08/11 09:33:46;;;;;;;4.63;3.00;;;23.60;99.90;;;;;;5101334;28;20413;-68
2023/08/11 09:36:12;;;;;;;3.90;3.03;;;23.60;99.90;;;;;;5101525;28;20870;-68
2023/08/11 09:38:41;;;;;;;5.03;3.20;;;23.70;99.90;;;;;;5101979;28;20418;-68
2023/08/11 09:41:08;;;;;;;3.17;2.87;;;23.80;99.90;;;;;;5102657;28;20373;-68
2023/08/11 09:43:36;;;;;;;3.57;2.57;;;23.90;99.90;;;;;;5101884;28;20513;-68
2023/08/11 09:46:02;;;;;;;4.13;2.67;;;24.00;99.90;;;;;;5101781;28;20417;-67
2023/08/11 09:48:27;;;;;;;3.20;2.70;;;24.10;99.90;;;;;;5102561;28;20475;-68
2023/08/11 09:50:55;;;;;;;6.37;3.20;;;24.20;99.90;;;;;;5101340;28;20185;-68
2023/08/11 09:53:22;;;;;;;5.50;3.40;;;24.30;99.90;;;;;;5102292;28;20201;-68
2023/08/11 09:55:49;;;;;;;3.30;2.93;;;24.50;99.90;;;;;;5100495;28;20424;-68
2023/08/11 09:58:17;;;;;;;3.03;2.80;;;24.60;99.90;;;;;;5102492;28;20418;-68
2023/08/11 10:00:45;;;;;;;5.13;2.97;;;24.70;99.90;;;;;;5100251;28;20778;-68
2023/08/11 10:03:16;;;;;;;3.93;2.73;;;24.80;99.90;;;;;;5102855;28;20430;-68
2023/08/11 10:05:43;;;;;;;3.07;2.50;;;24.90;99.90;;;;;;5082255;28;20990;-67
2023/08/11 10:08:20;;;;;;;3.20;2.60;;;25.00;99.90;;;;;;5102100;28;21091;-67
2023/08/11 10:10:45;;;;;;;3.30;2.73;;;25.00;99.90;;;;;;5101221;28;20487;-68
2023/08/11 10:13:18;;;;;;;5.13;2.90;;;25.10;99.70;;;;;;5083361;28;21406;-68
2023/08/11 10:15:48;;;;;;;5.83;3.00;;;25.20;99.90;;;;;;5098505;28;20221;-68
2023/08/11 10:18:16;;;;;;;3.60;2.80;;;25.30;99.90;;;;;;5102049;28;20430;-68
2023/08/11 10:20:42;;;;;;;3.23;2.93;;;25.30;99.90;;;;;;5102203;28;20847;-68
2023/08/11 10:23:08;;;;;;;3.60;3.10;;;25.40;99.90;;;;;;5101959;28;20422;-68
2023/08/11 10:25:35;;;;;;;4.63;3.40;;;25.50;99.90;;;;;;5100884;28;20216;-67
2023/08/11 10:28:02;;;;;;;3.07;2.30;;;25.60;99.90;;;;;;5101234;28;20429;-68
2023/08/11 10:30:28;;;;;;;3.50;2.80;;;25.60;99.80;;;;;;5080707;28;20889;-67
2023/08/11 10:33:03;;;;;;;3.40;3.10;;;25.70;99.90;;;;;;5095965;28;20433;-68
2023/08/11 10:35:51;;;;;;;4.77;3.67;;;25.70;99.90;;;;;;5099490;28;20453;-68
2023/08/11 10:38:29;;;;;;;4.20;2.63;;;25.90;99.90;;;;;;5101038;28;20478;-68
2023/08/11 10:40:59;;;;;;;3.40;3.10;;;26.00;99.90;;;;;;5101019;28;20430;-68
2023/08/11 10:43:31;;;;;;;3.07;2.77;;;26.00;99.60;;;;;;5092588;28;20516;-67
2023/08/11 10:46:13;;;;;;;5.00;3.00;;;26.10;99.50;;;;;;5092293;28;20510;-68
2023/08/11 10:48:39;;;;;;;5.10;3.03;;;26.20;99.10;;;;;;5086495;28;20430;-68
2023/08/11 10:51:21;;;;;;;3.53;3.13;;;26.20;98.80;;;;;;5093731;28;20482;-68
2023/08/11 10:53:47;;;;;;;3.50;2.50;;;26.20;98.50;;;;;;5090949;28;20184;-68
2023/08/11 10:56:13;;;;;;;4.30;2.90;;;26.30;99.70;;;;;;5091471;28;20503;-67
2023/08/11 10:58:38;;;;;;;2.83;2.50;;;26.40;99.80;;;;;;5100092;28;20172;-67
2023/08/11 11:01:05;;;;;;;3.40;2.80;;;26.40;99.30;;;;;;5100067;28;20187;-68
2023/08/11 11:03:32;;;;;;;5.50;3.13;;;26.50;98.80;;;;;;5089236;28;20200;-67
2023/08/11 11:06:03;;;;;;;5.37;3.10;;;26.60;98.60;;;;;;5096369;28;20512;-68
2023/08/11 11:08:30;;;;;;;3.97;3.07;;;26.70;98.80;;;;;;5098389;28;20422;-68
2023/08/11 11:10:55;;;;;;;3.20;2.60;;;26.70;97.90;;;;;;5100107;28;20803;-68
2023/08/11 11:13:21;;;;;;;3.17;2.97;;;26.80;96.20;;;;;;5100912;28;20184;-68
2023/08/11 11:15:47;;;;;;;3.17;2.50;;;26.80;96.40;;;;;;5098082;28;20182;-67
2023/08/11 11:18:13;;;;;;;3.63;2.53;;;26.90;96.10;;;;;;5100693;28;20191;-68
2023/08/11 11:20:38;;;;;;;3.37;3.07;;;26.90;95.20;;;;;;5099895;28;20418;-68
2023/08/11 11:23:05;;;;;;;10.37;3.87;;;26.90;95.00;;;;;;5100639;28;20175;-68
2023/08/11 11:25:31;;;;;;;3.00;2.60;;;27.00;95.00;;;;;;5099736;28;20314;-68
2023/08/11 11:27:57;;;;;;;5.03;3.10;;;27.00;94.50;;;;;;5100207;28;20516;-68
2023/08/11 11:30:23;;;;;;;3.23;2.87;;;27.00;94.80;;;;;;5100014;28;20198;-68
2023/08/11 11:32:49;;;;;;;2.93;2.63;;;27.10;95.70;;;;;;5093637;28;20788;-67
2023/08/11 11:35:15;;;;;;;3.50;2.87;;;27.10;94.50;;;;;;5088113;28;20430;-67
2023/08/11 11:37:41;;;;;;;4.70;3.10;;;27.10;94.40;;;;;;5092053;28;20470;-67
2023/08/11 11:40:09;;;;;;;3.53;2.80;;;27.20;94.70;;;;;;5098578;28;20906;-68
2023/08/11 11:42:38;;;;;;;5.00;3.00;;;27.20;93.50;;;;;;5093931;28;20218;-68
2023/08/11 11:45:05;;;;;;;3.10;2.50;;;27.20;93.10;;;;;;5092630;28;20457;-68
2023/08/11 11:47:31;;;;;;;6.23;2.87;;;27.30;93.20;;;;;;5091749;28;20479;-68
2023/08/11 11:49:58;;;;;;;4.43;2.50;;;27.30;93.70;;;;;;5095255;28;21039;-68
2023/08/11 11:52:27;;;;;;;2.80;2.60;;;27.40;93.50;;;;;;5092567;28;20426;-68
2023/08/11 11:54:54;;;;;;;4.10;2.90;;;27.30;92.50;;;;;;5097463;28;20440;-68
2023/08/11 11:57:23;;;;;;;3.20;2.90;;;27.40;93.40;;;;;;5093424;28;20440;-67
2023/08/11 11:59:49;;;;;;;3.00;2.80;;;27.40;93.50;;;;;;5094930;28;20422;-68
2023/08/11 12:02:16;;;;;;;3.30;3.00;;;27.50;94.70;;;;;;5080464;28;20421;-68
2023/08/11 12:04:43;;;;;;;3.50;2.50;;;27.60;96.00;;;;;;5096649;28;20458;-68
2023/08/11 12:07:09;;;;;;;5.10;3.10;;;27.60;94.10;;;;;;5100229;28;20433;-69
2023/08/11 12:09:53;;;;;;;3.13;2.83;;;27.60;92.80;;;;;;5098243;28;20524;-68
2023/08/11 12:12:19;;;;;;;3.07;2.80;;;27.50;93.50;;;;;;5100222;28;20449;-67
2023/08/11 12:14:45;;;;;;;3.40;3.10;;;27.50;93.30;;;;;;5102416;28;20512;-68
2023/08/11 12:17:11;;;;;;;5.03;3.00;;;27.50;93.30;;;;;;5103302;28;20228;-67
2023/08/11 12:19:37;;;;;;;3.90;2.83;;;27.40;93.10;;;;;;5103131;28;20204;-68
2023/08/11 12:22:04;;;;;;;3.90;2.87;;;27.40;93.00;;;;;;5077209;28;20433;-68
2023/08/11 12:24:30;;;;;;;2.80;2.60;;;27.40;94.10;;;;;;5096587;28;21157;-68
2023/08/11 12:26:55;;;;;;;3.90;3.00;;;27.50;94.30;;;;;;5094245;28;20421;-67
2023/08/11 12:29:21;;;;;;;3.20;2.90;;;27.50;93.80;;;;;;5098333;28;20175;-67
2023/08/11 12:31:50;;;;;;;3.90;2.87;;;27.50;94.00;;;;;;5098028;28;20698;-68
2023/08/11 12:34:16;;;;;;;4.20;3.50;;;27.60;94.00;;;;;;5076615;28;20189;-68
2023/08/11 12:36:41;;;;;;;4.37;3.03;;;27.60;94.80;;;;;;5096167;28;20434;-67
2023/08/11 12:39:07;;;;;;;3.20;2.90;;;27.70;94.90;;;;;;5096085;28;20255;-68
2023/08/11 12:41:33;;;;;;;3.97;3.57;;;27.70;95.00;;;;;;5096702;28;20616;-68
2023/08/11 12:43:59;;;;;;;4.47;3.37;;;27.80;94.70;;;;;;5101814;28;20306;-67
2023/08/11 12:46:25;;;;;;;3.50;3.20;;;27.80;95.20;;;;;;5102587;28;20490;-67